EKY weather

Bessemer Airport
Bessemer, Alabama, United States

Public forecast

Using degrees Fahrenheit for public forecast. Weather courtesy of forecast.io.

METAR (pilot weather report)

Closest report is Shelby County Airport, 10.9 nm (20.1 km) SE. Retrieved 2019/08/26 00:36 UTC (0 seconds ago):

KEET 260036Z AUTO VRB05KT 10SM BKN016 OVC055 24/22 A2998 RMK AO2 RAE06 P0000 T02390217

TAF (pilot weather forecast)

Forecast is more than 12 hours old.

Closest forecast is Shelby County Airport, 10.9 nm (20.1 km) SE. Retrieved 2019/08/25 00:36 UTC (24 hours ago):

TAF KEET 252333Z 2600/2624 10005KT P6SM -RA VCSH SCT020 SCT035 OVC100 TEMPO 2600/2602 VRB08G17KT 3SM TSRA BKN030CB FM260200 12006KT 6SM SHRA VCTS OVC025CB FM260400 11006KT P6SM VCSH FEW002 BKN025 FM260800 13007KT P6SM VCSH OVC007 FM261600 14009KT P6SM VCSH OVC012